Portada
METAR-TAF:

METAR-TAF

Aeroports :

Nouméa, Nova Caledònia

latitud: 22-15-30S, longitud: 166-28-22E, altitud: 3 m

METAR: manca

Hora: 22:09 (11:09 UTC)

Pronòstic

L'informe es va fer fa 18 hores i 9 minuts, a les 17:00 UTC
Pronòstic vàlid del 22 a les 18 UTC al 23 a les 18 UTC
Vent 10 kt del Est
Visibilitat 10 km o més
Escasses núvols a una alçada de 2000 ft
Núvols disperses a una alçada de 6000 ft
Temporalment
l' 22 a les 18 UTC al 23 a les 08 UTC
Escasses núvols a una alçada de 1800 ft, Cumulus congestus.
Probabilitat 30% :
Temporalment
l' 23 a les 02 UTC al 23 a les 06 UTC
Visibilitat: 3000 m
Cel ennuvolat a una alçada de 1300 ft
Escasses núvols a una alçada de 1600 ft, Cumulonimbus.
xàfecs de pluja

TAF: NWWM 221700Z 2218/2318 08010KT 9999 FEW020 SCT060 TEMPO 2218/2308 FEW018TCU PROB30 TEMPO 2302/2306 3000 SHRA BKN013 FEW016CB

Observacions i pronòstics meteorològics de més de 4000 aeroports (METAR i TAF).

Les estacions disponibles són els punts grocs i vermells al mapa.

Posi el ratolí al punt desitjat per veure el nom de l'estació.

Feu clic per veure les observacions i els pronòstics meteorològics.

Per canviar el mapa: feu clic els botons verds amb una creu de color negre per apropar; al botó verd amb un guió per allunyar la imatge; o en les fletxes verdes per a mapes adjacents.


METAR-TAF: